Terminal Aerodrome Forecast
Issued by NWS Shreveport, LA

Home | Current Version | Previous Version | Text Only | Print | Product List | Glossary On
Versions: 1 2 3 4 5 6 7 8 9 10 11 12
443
FTUS44 KSHV 241720
TAFMLU
TAF
KMLU 241720Z 2418/2518 18007KT P6SM SCT250
     FM251000 17003KT P6SM BKN025
     FM251600 18010KT P6SM SCT025 BKN100=

USA.gov is the U.S. government's official web portal to all federal, state and local government web resources and services.